createdAt,value
2023-03-06T00:00:25.993Z,1.90
2023-03-06T00:02:53.279Z,1.90
2023-03-06T00:05:20.072Z,1.90
2023-03-06T00:07:46.986Z,1.90
2023-03-06T00:10:32.684Z,1.90
2023-03-06T00:13:02.157Z,1.90
2023-03-06T00:15:29.393Z,1.90
2023-03-06T00:17:56.462Z,1.90
2023-03-06T00:20:24.723Z,1.90
2023-03-06T00:22:51.605Z,1.90
2023-03-06T00:25:20.648Z,1.90
2023-03-06T00:27:47.988Z,1.90
2023-03-06T00:30:18.032Z,1.90
2023-03-06T00:32:45.262Z,1.90
2023-03-06T00:35:13.089Z,1.90
2023-03-06T00:37:40.569Z,1.90
2023-03-06T00:40:10.004Z,1.90
2023-03-06T00:42:36.814Z,1.90
2023-03-06T00:45:04.205Z,1.90
2023-03-06T00:47:30.894Z,1.80
2023-03-06T00:49:57.545Z,1.90
2023-03-06T00:52:24.317Z,1.80
2023-03-06T00:54:51.030Z,1.80
2023-03-06T00:57:17.743Z,1.80
2023-03-06T00:59:46.047Z,1.80
2023-03-06T01:02:13.053Z,1.80
2023-03-06T01:04:39.857Z,1.70
2023-03-06T01:07:06.691Z,1.70
2023-03-06T01:09:35.655Z,1.70
2023-03-06T01:12:02.426Z,1.70
2023-03-06T01:14:29.347Z,1.70
2023-03-06T01:16:56.020Z,1.70
2023-03-06T01:19:23.094Z,1.70
2023-03-06T01:21:52.016Z,1.70
2023-03-06T01:24:18.892Z,1.60
2023-03-06T01:26:45.592Z,1.60
2023-03-06T01:29:17.294Z,1.60
2023-03-06T01:31:44.070Z,1.60
2023-03-06T01:34:10.760Z,1.60
2023-03-06T01:36:37.505Z,1.60
2023-03-06T01:39:04.416Z,1.70
2023-03-06T01:41:32.684Z,1.70
2023-03-06T01:43:59.473Z,1.60
2023-03-06T01:46:33.290Z,1.60
2023-03-06T01:49:08.440Z,1.60
2023-03-06T01:52:09.029Z,1.60
2023-03-06T01:54:49.666Z,1.50
2023-03-06T01:57:25.792Z,1.50
2023-03-06T01:59:59.872Z,1.50
2023-03-06T02:02:29.177Z,1.50
2023-03-06T02:04:56.080Z,1.50
2023-03-06T02:07:22.939Z,1.50
2023-03-06T02:09:49.813Z,1.50
2023-03-06T02:12:20.658Z,1.50
2023-03-06T02:14:48.647Z,1.50
2023-03-06T02:17:18.705Z,1.50
2023-03-06T02:20:03.734Z,1.50
2023-03-06T02:22:43.809Z,1.50
2023-03-06T02:25:45.911Z,1.50
2023-03-06T02:28:16.340Z,1.50
2023-03-06T02:30:44.157Z,1.40
2023-03-06T02:33:14.540Z,1.40
2023-03-06T02:35:52.339Z,1.40
2023-03-06T02:38:27.601Z,1.40
2023-03-06T02:40:55.038Z,1.30
2023-03-06T02:43:27.879Z,1.30
2023-03-06T02:45:54.919Z,1.30
2023-03-06T02:48:21.726Z,1.30
2023-03-06T02:50:48.938Z,1.30
2023-03-06T02:53:17.679Z,1.30
2023-03-06T02:55:45.121Z,1.30
2023-03-06T02:58:14.481Z,1.30
2023-03-06T03:00:46.587Z,1.20
2023-03-06T03:03:13.291Z,1.20
2023-03-06T03:05:40.031Z,1.30
2023-03-06T03:08:07.098Z,1.30
2023-03-06T03:10:33.829Z,1.30
2023-03-06T03:13:00.558Z,1.30
2023-03-06T03:15:27.346Z,1.40
2023-03-06T03:17:54.227Z,1.40
2023-03-06T03:20:24.864Z,1.40
2023-03-06T03:22:54.114Z,1.40
2023-03-06T03:25:25.180Z,1.50
2023-03-06T03:27:52.496Z,1.50
2023-03-06T03:30:21.514Z,1.50
2023-03-06T03:32:48.182Z,1.50
2023-03-06T03:35:14.930Z,1.60
2023-03-06T03:37:41.928Z,1.60
2023-03-06T03:40:10.188Z,1.70
2023-03-06T03:42:36.921Z,1.70
2023-03-06T03:45:06.077Z,1.70
2023-03-06T03:47:32.707Z,1.70
2023-03-06T03:49:59.374Z,1.70
2023-03-06T03:52:26.222Z,1.70
2023-03-06T03:54:53.064Z,1.70
2023-03-06T03:57:19.698Z,1.60
2023-03-06T03:59:48.403Z,1.60
2023-03-06T04:02:15.244Z,1.60
2023-03-06T04:04:42.048Z,1.60
2023-03-06T04:07:09.421Z,1.60
2023-03-06T04:09:39.156Z,1.50
2023-03-06T04:12:06.624Z,1.50
2023-03-06T04:14:33.368Z,1.60
2023-03-06T04:17:00.022Z,1.50
2023-03-06T04:19:26.645Z,1.50
2023-03-06T04:21:53.531Z,1.50
2023-03-06T04:24:20.119Z,1.50
2023-03-06T04:26:46.831Z,1.50
2023-03-06T04:29:13.497Z,1.50
2023-03-06T04:31:40.206Z,1.50
2023-03-06T04:34:07.047Z,1.50
2023-03-06T04:36:34.998Z,1.50
2023-03-06T04:39:02.790Z,1.50
2023-03-06T04:41:29.779Z,1.60
2023-03-06T04:43:56.534Z,1.60
2023-03-06T04:46:23.391Z,1.60
2023-03-06T04:48:52.343Z,1.50
2023-03-06T04:51:21.947Z,1.50
2023-03-06T04:53:48.664Z,1.50
2023-03-06T04:56:15.369Z,1.50
2023-03-06T04:58:43.926Z,1.50
2023-03-06T05:01:11.875Z,1.50
2023-03-06T05:03:38.767Z,1.50
2023-03-06T05:06:05.891Z,1.50
2023-03-06T05:08:32.612Z,1.40
2023-03-06T05:11:00.899Z,1.40
2023-03-06T05:13:28.728Z,1.50
2023-03-06T05:15:55.784Z,1.50
2023-03-06T05:18:22.428Z,1.50
2023-03-06T05:20:49.119Z,1.40
2023-03-06T05:23:15.820Z,1.40
2023-03-06T05:25:45.639Z,1.50
2023-03-06T05:28:12.325Z,1.40
2023-03-06T05:30:41.869Z,1.40
2023-03-06T05:33:08.719Z,1.40
2023-03-06T05:35:35.406Z,1.40
2023-03-06T05:38:02.364Z,1.40
2023-03-06T05:40:31.109Z,1.40
2023-03-06T05:42:57.845Z,1.40
2023-03-06T05:45:27.290Z,1.40
2023-03-06T05:47:54.126Z,1.40
2023-03-06T05:50:20.828Z,1.40
2023-03-06T05:52:47.477Z,1.40
2023-03-06T05:55:15.467Z,1.30
2023-03-06T05:57:42.601Z,1.30
2023-03-06T06:00:10.888Z,1.30
2023-03-06T06:02:37.629Z,1.40
2023-03-06T06:05:04.800Z,1.40
2023-03-06T06:07:36.702Z,1.40
2023-03-06T06:10:04.120Z,1.40
2023-03-06T06:12:31.541Z,1.50
2023-03-06T06:14:58.374Z,1.50
2023-03-06T06:17:25.095Z,1.50
2023-03-06T06:19:51.810Z,1.50
2023-03-06T06:22:18.623Z,1.50
2023-03-06T06:24:45.250Z,1.60
2023-03-06T06:27:11.993Z,1.60
2023-03-06T06:29:38.713Z,1.70
2023-03-06T06:32:05.649Z,1.80
2023-03-06T06:34:32.411Z,1.80
2023-03-06T06:37:06.593Z,1.80
2023-03-06T06:39:33.314Z,1.90
2023-03-06T06:42:21.089Z,1.90
2023-03-06T06:44:48.715Z,1.90
2023-03-06T06:47:23.063Z,2.00
2023-03-06T06:49:52.821Z,1.90
2023-03-06T06:52:20.831Z,2.00
2023-03-06T06:54:47.640Z,2.00
2023-03-06T06:57:15.382Z,2.10
2023-03-06T06:59:42.559Z,2.10
2023-03-06T07:02:12.439Z,2.20
2023-03-06T07:04:44.381Z,2.30
2023-03-06T07:07:16.079Z,2.50
2023-03-06T07:09:42.835Z,2.70
2023-03-06T07:12:09.714Z,2.90
2023-03-06T07:14:36.527Z,3.00
2023-03-06T07:17:03.399Z,3.10
2023-03-06T07:19:30.208Z,3.30
2023-03-06T07:21:57.001Z,3.30
2023-03-06T07:24:23.680Z,3.40
2023-03-06T07:26:50.333Z,3.40
2023-03-06T07:29:17.299Z,3.40
2023-03-06T07:31:44.377Z,3.50
2023-03-06T07:34:13.545Z,3.50
2023-03-06T07:36:40.759Z,3.60
2023-03-06T07:39:10.723Z,3.70
2023-03-06T07:41:37.359Z,3.80
2023-03-06T07:44:04.152Z,3.80
2023-03-06T07:46:30.918Z,3.80
2023-03-06T07:48:58.227Z,3.80
2023-03-06T07:51:25.274Z,3.90
2023-03-06T07:53:54.191Z,3.90
2023-03-06T07:56:21.034Z,3.90
2023-03-06T07:58:48.127Z,4.00
2023-03-06T08:01:20.677Z,4.00
2023-03-06T08:03:48.703Z,4.10
2023-03-06T08:06:19.411Z,4.20
2023-03-06T08:08:47.769Z,4.20
2023-03-06T08:11:17.645Z,4.30
2023-03-06T08:13:44.412Z,4.50
2023-03-06T08:16:11.969Z,4.70
2023-03-06T08:18:39.848Z,4.90
2023-03-06T08:21:15.246Z,5.00
2023-03-06T08:23:42.220Z,5.30
2023-03-06T08:26:15.633Z,5.40
2023-03-06T08:28:45.081Z,5.50
2023-03-06T08:31:35.765Z,5.60
2023-03-06T08:34:15.064Z,5.60
2023-03-06T08:36:42.276Z,5.60
2023-03-06T08:39:09.795Z,5.70
2023-03-06T08:46:40.073Z,6.10
2023-03-06T08:49:06.965Z,7.10
2023-03-06T08:51:33.779Z,7.20
2023-03-06T08:54:00.652Z,7.10
2023-03-06T08:56:30.063Z,6.80
2023-03-06T08:58:58.450Z,6.70
2023-03-06T09:01:31.612Z,6.50
2023-03-06T09:04:02.766Z,6.20
2023-03-06T09:06:32.942Z,6.10
2023-03-06T09:08:59.979Z,6.00
2023-03-06T09:11:28.299Z,5.90
2023-03-06T09:13:56.234Z,6.10
2023-03-06T09:16:23.708Z,6.30
2023-03-06T09:18:53.712Z,6.60
2023-03-06T09:21:25.007Z,6.60
2023-03-06T09:23:52.260Z,6.70
2023-03-06T09:26:18.962Z,6.80
2023-03-06T09:28:45.705Z,6.90
2023-03-06T09:31:15.446Z,6.90
2023-03-06T09:33:42.626Z,6.90
2023-03-06T09:36:23.250Z,6.80
2023-03-06T09:38:50.647Z,6.50
2023-03-06T09:41:23.608Z,6.40
2023-03-06T09:43:54.942Z,6.10
2023-03-06T09:46:39.769Z,5.90
2023-03-06T09:49:17.722Z,5.70
2023-03-06T09:52:14.966Z,5.80
2023-03-06T09:55:15.719Z,6.00
2023-03-06T09:58:00.096Z,6.30
2023-03-06T10:00:33.687Z,6.70
2023-03-06T10:34:36.035Z,7.00
2023-03-06T11:51:06.539Z,8.20
2023-03-06T12:07:09.917Z,9.80
2023-03-06T12:09:51.921Z,10.00
2023-03-06T12:12:56.031Z,9.70
2023-03-06T12:15:26.172Z,9.60
2023-03-06T13:31:26.623Z,10.40
2023-03-06T13:38:59.778Z,9.20
2023-03-06T13:41:30.754Z,8.60
2023-03-06T15:47:32.659Z,8.40
2023-03-06T15:49:59.318Z,6.10
2023-03-06T15:52:25.953Z,5.90
2023-03-06T15:54:52.657Z,5.60
2023-03-06T15:59:56.464Z,5.50
2023-03-06T16:02:26.639Z,5.30
2023-03-06T16:07:20.813Z,5.30
2023-03-06T16:09:47.855Z,5.10
2023-03-06T16:12:17.574Z,5.10
2023-03-06T16:14:45.774Z,5.00
2023-03-06T16:17:12.795Z,4.90
2023-03-06T16:19:41.573Z,5.00
2023-03-06T16:22:08.480Z,4.80
2023-03-06T16:24:35.132Z,4.80
2023-03-06T16:27:02.536Z,4.70
2023-03-06T16:29:30.102Z,4.70
2023-03-06T16:31:58.639Z,4.70
2023-03-06T16:34:25.983Z,4.90
2023-03-06T16:36:52.986Z,5.10
2023-03-06T16:39:23.865Z,5.30
2023-03-06T16:41:51.066Z,5.30
2023-03-06T16:44:18.150Z,5.40
2023-03-06T16:46:47.096Z,5.40
2023-03-06T16:49:19.611Z,5.40
2023-03-06T16:51:46.346Z,5.30
2023-03-06T16:54:14.589Z,5.20
2023-03-06T16:56:42.010Z,5.10
2023-03-06T16:59:09.777Z,4.90
2023-03-06T17:01:37.352Z,4.80
2023-03-06T17:04:04.627Z,4.60
2023-03-06T17:06:32.049Z,4.50
2023-03-06T17:09:00.012Z,4.40
2023-03-06T17:11:27.422Z,4.30
2023-03-06T17:13:55.270Z,4.10
2023-03-06T17:16:22.748Z,3.90
2023-03-06T17:18:49.742Z,3.70
2023-03-06T17:21:17.240Z,3.50
2023-03-06T17:23:44.544Z,3.40
2023-03-06T17:26:26.208Z,3.20
2023-03-06T17:28:54.148Z,3.00
2023-03-06T17:31:27.147Z,2.90
2023-03-06T17:33:59.088Z,2.80
2023-03-06T17:36:26.654Z,2.60
2023-03-06T17:38:58.287Z,2.50
2023-03-06T17:41:25.436Z,2.50
2023-03-06T17:43:52.757Z,2.40
2023-03-06T17:46:19.737Z,2.30
2023-03-06T17:48:46.743Z,2.20
2023-03-06T17:51:14.154Z,2.20
2023-03-06T17:53:41.058Z,2.20
2023-03-06T17:56:09.762Z,2.10
2023-03-06T17:58:36.514Z,2.00
2023-03-06T18:01:11.095Z,2.00
2023-03-06T18:03:38.701Z,2.00
2023-03-06T18:06:09.701Z,2.00
2023-03-06T18:08:37.506Z,2.00
2023-03-06T18:11:06.911Z,2.00
2023-03-06T18:13:35.054Z,2.00
2023-03-06T18:16:02.354Z,2.10
2023-03-06T18:18:34.886Z,2.00
2023-03-06T18:21:10.445Z,2.10
2023-03-06T18:23:41.136Z,2.10
2023-03-06T18:26:20.515Z,2.20
2023-03-06T18:29:07.795Z,2.20
2023-03-06T18:31:40.402Z,2.20
2023-03-06T18:34:10.475Z,2.30
2023-03-06T18:36:38.120Z,2.30
2023-03-06T18:39:09.592Z,2.30
2023-03-06T18:41:38.929Z,2.20
2023-03-06T18:44:06.290Z,2.10
2023-03-06T18:46:36.370Z,2.10
2023-03-06T18:49:03.758Z,2.00
2023-03-06T18:51:30.908Z,1.90
2023-03-06T18:53:59.173Z,1.80
2023-03-06T18:56:26.165Z,1.70
2023-03-06T18:58:53.760Z,1.60
2023-03-06T19:01:22.232Z,1.50
2023-03-06T19:03:49.553Z,1.40
2023-03-06T19:06:17.593Z,1.30
2023-03-06T19:08:44.467Z,1.20
2023-03-06T19:11:14.051Z,1.00
2023-03-06T19:13:41.144Z,0.90
2023-03-06T19:16:09.084Z,0.90
2023-03-06T19:18:36.024Z,0.80
2023-03-06T19:21:10.808Z,0.80
2023-03-06T19:23:39.522Z,0.60
2023-03-06T19:26:11.780Z,0.50
2023-03-06T19:28:40.485Z,0.50
2023-03-06T19:31:10.731Z,0.40
2023-03-06T19:33:37.998Z,0.40
2023-03-06T19:36:10.658Z,0.40
2023-03-06T19:38:40.542Z,0.40
2023-03-06T19:41:11.804Z,0.40
2023-03-06T19:43:38.939Z,0.30
2023-03-06T19:46:06.170Z,0.30
2023-03-06T19:48:32.951Z,0.20
2023-03-06T19:51:04.205Z,0.20
2023-03-06T19:53:31.214Z,0.20
2023-03-06T19:56:11.488Z,0.10
2023-03-06T19:58:40.518Z,0.10
2023-03-06T20:01:11.195Z,0.10
2023-03-06T20:03:38.413Z,0.10
2023-03-06T20:06:11.623Z,0.20
2023-03-06T20:08:38.661Z,0.10
2023-03-06T20:11:05.462Z,0.10
2023-03-06T20:13:32.214Z,0.00
2023-03-06T20:16:08.163Z,-0.10
2023-03-06T20:18:34.840Z,-0.10
2023-03-06T20:21:02.489Z,-0.10
2023-03-06T20:23:30.229Z,0.00
2023-03-06T20:25:57.021Z,0.00
2023-03-06T20:28:23.743Z,0.00
2023-03-06T20:30:50.495Z,0.00
2023-03-06T20:33:17.163Z,0.00
2023-03-06T20:35:44.311Z,0.10
2023-03-06T20:38:11.285Z,0.10
2023-03-06T20:40:39.841Z,0.00
2023-03-06T20:43:07.095Z,0.00
2023-03-06T20:45:34.597Z,0.00
2023-03-06T20:48:01.504Z,-0.10
2023-03-06T20:50:28.611Z,-0.20
2023-03-06T20:52:56.462Z,-0.30
2023-03-06T20:55:23.359Z,-0.30
2023-03-06T20:57:53.531Z,-0.30
2023-03-06T21:00:23.925Z,-0.30
2023-03-06T21:02:50.658Z,-0.30
2023-03-06T21:05:17.398Z,-0.30
2023-03-06T21:07:44.184Z,-0.30
2023-03-06T21:10:14.965Z,-0.40
2023-03-06T21:12:41.672Z,-0.50
2023-03-06T21:15:08.844Z,-0.60
2023-03-06T21:17:35.570Z,-0.70
2023-03-06T21:20:02.294Z,-0.70
2023-03-06T21:22:30.215Z,-0.80
2023-03-06T21:24:56.867Z,-0.70
2023-03-06T21:27:24.096Z,-0.60
2023-03-06T21:29:50.818Z,-0.60
2023-03-06T21:32:17.618Z,-0.70
2023-03-06T21:34:44.373Z,-0.70
2023-03-06T21:37:11.027Z,-0.60
2023-03-06T21:39:40.562Z,-0.60
2023-03-06T21:42:07.322Z,-0.60
2023-03-06T21:44:34.078Z,-0.60
2023-03-06T21:47:00.751Z,-0.70
2023-03-06T21:49:28.297Z,-0.70
2023-03-06T21:51:55.343Z,-0.60
2023-03-06T21:54:22.253Z,-0.60
2023-03-06T21:56:49.002Z,-0.60
2023-03-06T21:59:15.762Z,-0.50
2023-03-06T22:01:42.647Z,-0.40
2023-03-06T22:04:09.717Z,-0.30
2023-03-06T22:06:38.428Z,-0.20
2023-03-06T22:09:05.059Z,-0.20
2023-03-06T22:11:36.824Z,-0.10
2023-03-06T22:14:04.827Z,0.00
2023-03-06T22:16:32.757Z,0.10
2023-03-06T22:19:02.332Z,0.10
2023-03-06T22:21:29.023Z,0.20
2023-03-06T22:23:59.493Z,0.30
2023-03-06T22:26:28.117Z,0.50
2023-03-06T22:28:55.046Z,0.60
2023-03-06T22:31:24.115Z,0.70
2023-03-06T22:33:55.424Z,0.80
2023-03-06T22:36:25.286Z,0.80
2023-03-06T22:38:57.995Z,0.90
2023-03-06T22:41:27.976Z,1.00
2023-03-06T22:43:59.277Z,1.10
2023-03-06T22:46:28.359Z,1.10
2023-03-06T22:48:59.645Z,1.20
2023-03-06T22:51:28.089Z,1.20
2023-03-06T22:53:55.400Z,1.20
2023-03-06T22:56:22.526Z,1.20
2023-03-06T22:58:49.536Z,1.20
2023-03-06T23:01:27.758Z,1.20
2023-03-06T23:04:00.022Z,1.20
2023-03-06T23:06:35.403Z,1.20
2023-03-06T23:09:05.934Z,1.30
2023-03-06T23:11:35.781Z,1.40
2023-03-06T23:14:03.061Z,1.50
2023-03-06T23:16:29.994Z,1.50
2023-03-06T23:18:56.692Z,1.50
2023-03-06T23:21:24.346Z,1.60
2023-03-06T23:23:52.985Z,1.70
2023-03-06T23:26:21.921Z,1.80
2023-03-06T23:28:48.703Z,1.80
2023-03-06T23:31:17.901Z,1.90
2023-03-06T23:33:44.629Z,1.90
2023-03-06T23:36:14.187Z,2.00
2023-03-06T23:38:41.746Z,2.00
2023-03-06T23:41:12.630Z,2.00
2023-03-06T23:43:39.575Z,2.00
2023-03-06T23:46:07.264Z,2.00
2023-03-06T23:48:35.751Z,2.00
2023-03-06T23:51:07.606Z,2.00
2023-03-06T23:53:37.818Z,2.00
2023-03-06T23:56:06.701Z,2.00
2023-03-06T23:58:36.063Z,2.00
